PADL/DLG METAR and TAF weather

Enter ICAO airport designator
Station Type Date Time Source
PADL METAR 2020/10/20 16:56 UTC NOAA

PADL 201656Z 28003KT 10SM CLR M01/M02 A3055 RMK AO2 SLP349 T10061017


Station Type Date Time Source
PADL Decoded METAR 2020/10/20 16:56 UTC NOAA

Dillingham, Dillingham Airport, AK, United States (PADL) 59-03N 158-31W 29M
Oct 20, 2020 - 12:56 PM EDT / 2020.10.20 1656 UTC
Wind: from the W (280 degrees) at 3 MPH (3 KT):0
Visibility: 10 mile(s):0
Sky conditions: clear
Temperature: 30.9 F (-0.6 C)
Dew Point: 28.9 F (-1.7 C)
Relative Humidity: 92%
Pressure (altimeter): 30.55 in. Hg (1034 hPa)
ob: PADL 201656Z 28003KT 10SM CLR M01/M02 A3055 RMK AO2 SLP349 T10061017
cycle: 17

Station Type Date Time Source
PADL TAF 2020/10/20 18:27 UTC NOAA

TAF PADL 201725Z 2018/2118 33005KT P6SM SKC
FM211200 36012KT P6SM SKC

Example: see airport list